sensor_id;sensor_type;location;lat;lon;timestamp;pressure;altitude;pressure_sealevel;temperature;humidity
37610;BME280;23457;51.966;8.230;2023-04-07T00:02:14;100837.47;;;8.89;100.00
37610;BME280;23457;51.966;8.230;2023-04-07T00:04:42;100835.50;;;8.79;100.00
37610;BME280;23457;51.966;8.230;2023-04-07T00:07:08;100834.75;;;8.83;100.00
37610;BME280;23457;51.966;8.230;2023-04-07T00:09:35;100831.06;;;8.74;100.00
37610;BME280;23457;51.966;8.230;2023-04-07T00:12:02;100821.44;;;8.70;100.00
37610;BME280;23457;51.966;8.230;2023-04-07T00:14:29;100827.13;;;8.55;100.00
37610;BME280;23457;51.966;8.230;2023-04-07T00:16:55;100821.50;;;8.71;100.00
37610;BME280;23457;51.966;8.230;2023-04-07T00:19:22;100820.38;;;8.61;100.00
37610;BME280;23457;51.966;8.230;2023-04-07T00:21:48;100816.38;;;8.74;100.00
37610;BME280;23457;51.966;8.230;2023-04-07T00:24:15;100812.16;;;8.78;100.00
37610;BME280;23457;51.966;8.230;2023-04-07T00:26:59;100813.72;;;8.71;100.00
37610;BME280;23457;51.966;8.230;2023-04-07T00:29:26;100810.25;;;8.71;100.00
37610;BME280;23457;51.966;8.230;2023-04-07T00:31:53;100809.50;;;8.76;100.00
37610;BME280;23457;51.966;8.230;2023-04-07T00:34:19;100818.47;;;8.54;100.00
37610;BME280;23457;51.966;8.230;2023-04-07T00:36:46;100808.38;;;8.65;100.00
37610;BME280;23457;51.966;8.230;2023-04-07T00:39:18;100807.44;;;8.63;100.00
37610;BME280;23457;51.966;8.230;2023-04-07T00:41:46;100807.59;;;8.68;100.00
37610;BME280;23457;51.966;8.230;2023-04-07T00:44:13;100805.25;;;8.78;100.00
37610;BME280;23457;51.966;8.230;2023-04-07T00:46:40;100797.09;;;8.63;100.00
37610;BME280;23457;51.966;8.230;2023-04-07T00:49:07;100796.22;;;8.62;100.00
37610;BME280;23457;51.966;8.230;2023-04-07T00:51:36;100798.72;;;8.58;100.00
37610;BME280;23457;51.966;8.230;2023-04-07T00:54:03;100797.16;;;8.66;100.00
37610;BME280;23457;51.966;8.230;2023-04-07T00:56:31;100797.13;;;8.65;100.00
37610;BME280;23457;51.966;8.230;2023-04-07T00:58:57;100794.59;;;8.66;100.00
37610;BME280;23457;51.966;8.230;2023-04-07T01:01:29;100794.63;;;8.68;100.00
37610;BME280;23457;51.966;8.230;2023-04-07T01:04:08;100796.47;;;8.72;100.00
37610;BME280;23457;51.966;8.230;2023-04-07T01:06:38;100790.69;;;8.83;100.00
37610;BME280;23457;51.966;8.230;2023-04-07T01:09:17;100790.28;;;8.67;100.00
37610;BME280;23457;51.966;8.230;2023-04-07T01:12:17;100794.53;;;8.65;100.00
37610;BME280;23457;51.966;8.230;2023-04-07T01:14:50;100789.19;;;8.57;100.00
37610;BME280;23457;51.966;8.230;2023-04-07T01:17:42;100786.72;;;8.63;100.00
37610;BME280;23457;51.966;8.230;2023-04-07T01:20:16;100785.28;;;8.74;100.00
37610;BME280;23457;51.966;8.230;2023-04-07T01:22:53;100775.22;;;8.52;100.00
37610;BME280;23457;51.966;8.230;2023-04-07T01:25:37;100777.19;;;8.62;100.00
37610;BME280;23457;51.966;8.230;2023-04-07T01:28:39;100776.06;;;8.51;100.00
37610;BME280;23457;51.966;8.230;2023-04-07T01:31:08;100782.34;;;8.27;100.00
37610;BME280;23457;51.966;8.230;2023-04-07T01:33:36;100770.13;;;8.22;100.00
37610;BME280;23457;51.966;8.230;2023-04-07T01:36:06;100778.00;;;8.26;100.00
37610;BME280;23457;51.966;8.230;2023-04-07T01:38:33;100771.56;;;8.12;100.00
37610;BME280;23457;51.966;8.230;2023-04-07T01:41:02;100767.94;;;8.36;100.00
37610;BME280;23457;51.966;8.230;2023-04-07T01:43:29;100764.03;;;8.53;100.00
37610;BME280;23457;51.966;8.230;2023-04-07T01:45:56;100770.22;;;8.26;100.00
37610;BME280;23457;51.966;8.230;2023-04-07T01:48:23;100772.66;;;8.20;100.00
37610;BME280;23457;51.966;8.230;2023-04-07T01:50:51;100760.06;;;8.33;100.00
37610;BME280;23457;51.966;8.230;2023-04-07T01:53:19;100776.91;;;8.18;100.00
37610;BME280;23457;51.966;8.230;2023-04-07T01:55:46;100762.50;;;8.28;100.00
37610;BME280;23457;51.966;8.230;2023-04-07T01:58:13;100771.25;;;8.32;100.00
37610;BME280;23457;51.966;8.230;2023-04-07T02:00:41;100760.22;;;8.07;100.00
37610;BME280;23457;51.966;8.230;2023-04-07T02:03:21;100756.22;;;8.18;100.00
37610;BME280;23457;51.966;8.230;2023-04-07T02:05:52;100757.72;;;8.10;100.00
37610;BME280;23457;51.966;8.230;2023-04-07T02:08:26;100757.09;;;8.19;100.00
37610;BME280;23457;51.966;8.230;2023-04-07T02:10:56;100761.88;;;8.37;100.00
37610;BME280;23457;51.966;8.230;2023-04-07T02:13:28;100758.19;;;8.28;100.00
37610;BME280;23457;51.966;8.230;2023-04-07T02:15:56;100761.78;;;8.32;100.00
37610;BME280;23457;51.966;8.230;2023-04-07T02:18:25;100761.03;;;8.38;100.00
37610;BME280;23457;51.966;8.230;2023-04-07T02:20:52;100761.00;;;8.35;100.00
37610;BME280;23457;51.966;8.230;2023-04-07T02:23:19;100759.78;;;8.23;100.00
37610;BME280;23457;51.966;8.230;2023-04-07T02:25:46;100762.25;;;8.19;100.00
37610;BME280;23457;51.966;8.230;2023-04-07T02:28:12;100757.78;;;8.13;100.00
37610;BME280;23457;51.966;8.230;2023-04-07T02:30:39;100763.28;;;8.25;100.00
37610;BME280;23457;51.966;8.230;2023-04-07T02:33:06;100756.53;;;8.31;100.00
37610;BME280;23457;51.966;8.230;2023-04-07T02:35:33;100759.38;;;8.40;100.00
37610;BME280;23457;51.966;8.230;2023-04-07T02:38:00;100762.38;;;8.23;100.00
37610;BME280;23457;51.966;8.230;2023-04-07T02:40:27;100758.56;;;8.09;100.00
37610;BME280;23457;51.966;8.230;2023-04-07T02:42:54;100763.88;;;8.15;100.00
37610;BME280;23457;51.966;8.230;2023-04-07T02:45:21;100764.56;;;8.08;100.00
37610;BME280;23457;51.966;8.230;2023-04-07T02:47:48;100764.31;;;7.99;100.00
37610;BME280;23457;51.966;8.230;2023-04-07T02:50:16;100762.25;;;8.19;100.00
37610;BME280;23457;51.966;8.230;2023-04-07T02:52:43;100759.22;;;8.02;100.00
37610;BME280;23457;51.966;8.230;2023-04-07T02:55:12;100760.81;;;7.97;100.00
37610;BME280;23457;51.966;8.230;2023-04-07T02:57:39;100757.66;;;8.07;100.00
37610;BME280;23457;51.966;8.230;2023-04-07T03:00:15;100761.16;;;8.09;100.00
37610;BME280;23457;51.966;8.230;2023-04-07T03:03:02;100764.81;;;8.17;100.00
37610;BME280;23457;51.966;8.230;2023-04-07T03:05:33;100759.31;;;8.05;100.00
37610;BME280;23457;51.966;8.230;2023-04-07T03:08:01;100759.97;;;7.98;100.00
37610;BME280;23457;51.966;8.230;2023-04-07T03:10:28;100767.97;;;8.06;100.00
37610;BME280;23457;51.966;8.230;2023-04-07T03:12:54;100758.75;;;8.17;100.00
37610;BME280;23457;51.966;8.230;2023-04-07T03:15:21;100764.91;;;7.89;100.00
37610;BME280;23457;51.966;8.230;2023-04-07T03:17:49;100759.06;;;7.96;100.00
37610;BME280;23457;51.966;8.230;2023-04-07T03:20:16;100765.97;;;7.96;100.00
37610;BME280;23457;51.966;8.230;2023-04-07T03:22:43;100759.94;;;7.97;100.00
37610;BME280;23457;51.966;8.230;2023-04-07T03:25:19;100762.31;;;7.89;100.00
37610;BME280;23457;51.966;8.230;2023-04-07T03:27:48;100759.13;;;7.99;100.00
37610;BME280;23457;51.966;8.230;2023-04-07T03:30:15;100753.94;;;7.98;100.00
37610;BME280;23457;51.966;8.230;2023-04-07T03:32:43;100761.06;;;8.06;100.00
37610;BME280;23457;51.966;8.230;2023-04-07T03:35:10;100755.22;;;7.82;100.00
37610;BME280;23457;51.966;8.230;2023-04-07T03:37:36;100749.56;;;7.95;100.00
37610;BME280;23457;51.966;8.230;2023-04-07T03:40:08;100758.81;;;7.87;100.00
37610;BME280;23457;51.966;8.230;2023-04-07T03:42:35;100758.88;;;7.90;100.00
37610;BME280;23457;51.966;8.230;2023-04-07T03:45:05;100760.41;;;7.82;100.00
37610;BME280;23457;51.966;8.230;2023-04-07T03:47:33;100752.88;;;7.91;100.00
37610;BME280;23457;51.966;8.230;2023-04-07T03:50:03;100762.59;;;8.00;100.00
37610;BME280;23457;51.966;8.230;2023-04-07T03:52:34;100755.56;;;7.94;100.00
37610;BME280;23457;51.966;8.230;2023-04-07T03:55:10;100760.41;;;7.82;100.00
37610;BME280;23457;51.966;8.230;2023-04-07T03:57:39;100758.19;;;7.96;100.00
37610;BME280;23457;51.966;8.230;2023-04-07T04:00:06;100771.63;;;7.82;100.00
37610;BME280;23457;51.966;8.230;2023-04-07T04:02:41;100760.22;;;7.76;100.00
37610;BME280;23457;51.966;8.230;2023-04-07T04:05:11;100763.91;;;7.84;100.00
37610;BME280;23457;51.966;8.230;2023-04-07T04:07:38;100764.91;;;7.89;100.00
37610;BME280;23457;51.966;8.230;2023-04-07T04:10:05;100770.16;;;7.92;100.00
37610;BME280;23457;51.966;8.230;2023-04-07T04:12:37;100765.72;;;7.88;100.00
37610;BME280;23457;51.966;8.230;2023-04-07T04:15:08;100769.00;;;7.81;100.00
37610;BME280;23457;51.966;8.230;2023-04-07T04:17:36;100766.69;;;7.91;100.00
37610;BME280;23457;51.966;8.230;2023-04-07T04:20:05;100766.06;;;8.00;100.00
37610;BME280;23457;51.966;8.230;2023-04-07T04:22:50;100773.09;;;8.04;100.00
37610;BME280;23457;51.966;8.230;2023-04-07T04:25:18;100774.59;;;7.96;100.00
37610;BME280;23457;51.966;8.230;2023-04-07T04:27:50;100773.00;;;8.01;100.00
37610;BME280;23457;51.966;8.230;2023-04-07T04:30:20;100773.69;;;7.94;100.00
37610;BME280;23457;51.966;8.230;2023-04-07T04:32:57;100767.38;;;7.86;100.00
37610;BME280;23457;51.966;8.230;2023-04-07T04:35:44;100776.91;;;7.87;100.00
37610;BME280;23457;51.966;8.230;2023-04-07T04:38:15;100779.25;;;7.78;100.00
37610;BME280;23457;51.966;8.230;2023-04-07T04:40:48;100775.84;;;7.79;100.00
37610;BME280;23457;51.966;8.230;2023-04-07T04:43:18;100781.25;;;7.88;100.00
37610;BME280;23457;51.966;8.230;2023-04-07T04:45:45;100786.44;;;7.88;100.00
37610;BME280;23457;51.966;8.230;2023-04-07T04:48:14;100782.44;;;7.99;100.00
37610;BME280;23457;51.966;8.230;2023-04-07T04:50:41;100793.53;;;7.95;100.00
37610;BME280;23457;51.966;8.230;2023-04-07T04:53:10;100796.19;;;7.98;100.00
37610;BME280;23457;51.966;8.230;2023-04-07T04:55:44;100796.88;;;7.91;100.00
37610;BME280;23457;51.966;8.230;2023-04-07T04:58:21;100792.66;;;7.95;100.00
37610;BME280;23457;51.966;8.230;2023-04-07T05:00:54;100796.88;;;7.91;100.00
37610;BME280;23457;51.966;8.230;2023-04-07T05:03:29;100797.91;;;7.96;100.00
37610;BME280;23457;51.966;8.230;2023-04-07T05:05:59;100796.78;;;7.88;100.00
37610;BME280;23457;51.966;8.230;2023-04-07T05:08:26;100797.06;;;7.97;100.00
37610;BME280;23457;51.966;8.230;2023-04-07T05:10:53;100798.69;;;7.94;100.00
37610;BME280;23457;51.966;8.230;2023-04-07T05:13:24;100795.03;;;7.87;100.00
37610;BME280;23457;51.966;8.230;2023-04-07T05:15:52;100799.94;;;8.08;100.00
37610;BME280;23457;51.966;8.230;2023-04-07T05:18:19;100801.59;;;8.06;100.00
37610;BME280;23457;51.966;8.230;2023-04-07T05:20:48;100803.81;;;7.92;100.00
37610;BME280;23457;51.966;8.230;2023-04-07T05:23:15;100805.38;;;7.87;100.00
37610;BME280;23457;51.966;8.230;2023-04-07T05:25:45;100804.69;;;7.93;100.00
37610;BME280;23457;51.966;8.230;2023-04-07T05:28:12;100807.66;;;7.76;100.00
37610;BME280;23457;51.966;8.230;2023-04-07T05:30:38;100805.94;;;7.77;100.00
37610;BME280;23457;51.966;8.230;2023-04-07T05:33:05;100811.28;;;7.81;100.00
37610;BME280;23457;51.966;8.230;2023-04-07T05:35:40;100810.19;;;7.75;100.00
37610;BME280;23457;51.966;8.230;2023-04-07T05:38:08;100816.44;;;7.81;100.00
37610;BME280;23457;51.966;8.230;2023-04-07T05:40:38;100813.81;;;7.80;100.00
37610;BME280;23457;51.966;8.230;2023-04-07T05:43:07;100816.00;;;7.96;100.00
37610;BME280;23457;51.966;8.230;2023-04-07T05:45:34;100819.78;;;8.07;100.00
37610;BME280;23457;51.966;8.230;2023-04-07T05:48:01;100814.31;;;7.98;100.00
37610;BME280;23457;51.966;8.230;2023-04-07T05:50:42;100814.25;;;7.95;100.00
37610;BME280;23457;51.966;8.230;2023-04-07T05:53:12;100820.59;;;8.06;100.00
37610;BME280;23457;51.966;8.230;2023-04-07T05:55:42;100818.13;;;8.11;100.00
37610;BME280;23457;51.966;8.230;2023-04-07T05:58:14;100819.88;;;8.10;100.00
37610;BME280;23457;51.966;8.230;2023-04-07T06:00:47;100816.59;;;7.87;100.00
37610;BME280;23457;51.966;8.230;2023-04-07T06:03:16;100827.63;;;8.10;100.00
37610;BME280;23457;51.966;8.230;2023-04-07T06:05:52;100826.34;;;7.96;100.00
37610;BME280;23457;51.966;8.230;2023-04-07T06:08:20;100822.31;;;8.06;100.00
37610;BME280;23457;51.966;8.230;2023-04-07T06:10:47;100825.53;;;7.97;100.00
37610;BME280;23457;51.966;8.230;2023-04-07T06:13:13;100832.16;;;8.19;100.00
37610;BME280;23457;51.966;8.230;2023-04-07T06:15:41;100838.31;;;8.22;100.00
37610;BME280;23457;51.966;8.230;2023-04-07T06:18:08;100833.88;;;8.18;100.00
37610;BME280;23457;51.966;8.230;2023-04-07T06:20:35;100834.41;;;8.07;100.00
37610;BME280;23457;51.966;8.230;2023-04-07T06:23:02;100835.34;;;8.09;100.00
37610;BME280;23457;51.966;8.230;2023-04-07T06:25:28;100837.09;;;8.10;100.00
37610;BME280;23457;51.966;8.230;2023-04-07T06:27:55;100843.16;;;8.10;100.00
37610;BME280;23457;51.966;8.230;2023-04-07T06:30:22;100842.22;;;8.08;100.00
37610;BME280;23457;51.966;8.230;2023-04-07T06:32:49;100841.69;;;8.20;100.00
37610;BME280;23457;51.966;8.230;2023-04-07T06:35:16;100844.56;;;8.31;100.00
37610;BME280;23457;51.966;8.230;2023-04-07T06:37:43;100851.97;;;8.17;100.00
37610;BME280;23457;51.966;8.230;2023-04-07T06:40:10;100852.94;;;8.20;100.00
37610;BME280;23457;51.966;8.230;2023-04-07T06:42:36;100854.69;;;8.21;100.00
37610;BME280;23457;51.966;8.230;2023-04-07T06:45:11;100859.44;;;8.06;100.00
37610;BME280;23457;51.966;8.230;2023-04-07T06:47:38;100855.22;;;8.11;100.00
37610;BME280;23457;51.966;8.230;2023-04-07T06:50:06;100864.38;;;8.28;100.00
37610;BME280;23457;51.966;8.230;2023-04-07T06:52:33;100861.63;;;8.22;100.00
37610;BME280;23457;51.966;8.230;2023-04-07T06:55:00;100868.16;;;8.10;100.00
37610;BME280;23457;51.966;8.230;2023-04-07T06:57:26;100867.44;;;8.15;100.00
37610;BME280;23457;51.966;8.230;2023-04-07T06:59:53;100863.72;;;8.06;100.00
37610;BME280;23457;51.966;8.230;2023-04-07T07:02:19;100874.56;;;8.24;100.00
37610;BME280;23457;51.966;8.230;2023-04-07T07:04:46;100874.47;;;8.19;100.00
37610;BME280;23457;51.966;8.230;2023-04-07T07:07:13;100875.41;;;8.21;100.00
37610;BME280;23457;51.966;8.230;2023-04-07T07:09:39;100873.19;;;8.05;100.00
37610;BME280;23457;51.966;8.230;2023-04-07T07:12:06;100881.00;;;8.37;100.00
37610;BME280;23457;51.966;8.230;2023-04-07T07:14:33;100871.25;;;8.28;100.00
37610;BME280;23457;51.966;8.230;2023-04-07T07:16:59;100878.41;;;8.35;100.00
37610;BME280;23457;51.966;8.230;2023-04-07T07:19:26;100876.88;;;8.43;100.00
37610;BME280;23457;51.966;8.230;2023-04-07T07:21:53;100888.47;;;8.56;100.00
37610;BME280;23457;51.966;8.230;2023-04-07T07:24:20;100884.69;;;8.45;100.00
37610;BME280;23457;51.966;8.230;2023-04-07T07:26:47;100878.97;;;8.56;100.00
37610;BME280;23457;51.966;8.230;2023-04-07T07:29:14;100886.63;;;8.85;100.00
37610;BME280;23457;51.966;8.230;2023-04-07T07:31:40;100889.09;;;8.80;100.00
37610;BME280;23457;51.966;8.230;2023-04-07T07:34:07;100891.59;;;8.77;100.00
37610;BME280;23457;51.966;8.230;2023-04-07T07:36:34;100887.50;;;8.85;100.00
37610;BME280;23457;51.966;8.230;2023-04-07T07:39:00;100904.72;;;8.83;100.00
37610;BME280;23457;51.966;8.230;2023-04-07T07:41:27;100900.16;;;8.75;100.00
37610;BME280;23457;51.966;8.230;2023-04-07T07:43:54;100905.88;;;8.94;100.00
37610;BME280;23457;51.966;8.230;2023-04-07T07:46:20;100902.53;;;9.00;100.00
37610;BME280;23457;51.966;8.230;2023-04-07T07:48:49;100905.22;;;9.03;100.00
37610;BME280;23457;51.966;8.230;2023-04-07T07:51:15;100908.34;;;9.23;100.00
37610;BME280;23457;51.966;8.230;2023-04-07T07:53:44;100906.69;;;9.28;100.00
37610;BME280;23457;51.966;8.230;2023-04-07T07:56:12;100913.97;;;9.07;100.00
37610;BME280;23457;51.966;8.230;2023-04-07T07:58:38;100917.00;;;9.23;100.00
37610;BME280;23457;51.966;8.230;2023-04-07T08:01:05;100916.81;;;9.53;100.00
37610;BME280;23457;51.966;8.230;2023-04-07T08:03:32;100926.81;;;9.38;100.00
37610;BME280;23457;51.966;8.230;2023-04-07T08:05:59;100914.72;;;9.37;100.00
37610;BME280;23457;51.966;8.230;2023-04-07T08:08:26;100931.47;;;9.15;100.00
37610;BME280;23457;51.966;8.230;2023-04-07T08:10:53;100917.88;;;9.25;100.00
37610;BME280;23457;51.966;8.230;2023-04-07T08:13:19;100937.72;;;9.23;100.00
37610;BME280;23457;51.966;8.230;2023-04-07T08:15:46;100938.63;;;9.24;100.00
37610;BME280;23457;51.966;8.230;2023-04-07T08:18:12;100934.19;;;9.20;100.00
37610;BME280;23457;51.966;8.230;2023-04-07T08:20:39;100930.50;;;9.46;100.00
37610;BME280;23457;51.966;8.230;2023-04-07T08:23:06;100935.97;;;9.58;100.00
37610;BME280;23457;51.966;8.230;2023-04-07T08:25:33;100932.97;;;9.42;100.00
37610;BME280;23457;51.966;8.230;2023-04-07T08:28:00;100943.69;;;9.55;100.00
37610;BME280;23457;51.966;8.230;2023-04-07T08:30:27;100936.41;;;9.41;100.00
37610;BME280;23457;51.966;8.230;2023-04-07T08:32:54;100938.66;;;9.63;100.00
37610;BME280;23457;51.966;8.230;2023-04-07T08:35:22;100938.03;;;9.72;100.00
37610;BME280;23457;51.966;8.230;2023-04-07T08:37:48;100944.97;;;9.73;100.00
37610;BME280;23457;51.966;8.230;2023-04-07T08:40:15;100948.44;;;9.73;100.00
37610;BME280;23457;51.966;8.230;2023-04-07T08:42:46;100944.38;;;9.84;100.00
37610;BME280;23457;51.966;8.230;2023-04-07T08:45:16;100952.31;;;9.92;100.00
37610;BME280;23457;51.966;8.230;2023-04-07T08:47:43;100941.94;;;9.92;100.00
37610;BME280;23457;51.966;8.230;2023-04-07T08:50:16;100954.25;;;10.02;100.00
37610;BME280;23457;51.966;8.230;2023-04-07T08:52:45;100951.97;;;10.16;100.00
37610;BME280;23457;51.966;8.230;2023-04-07T08:55:15;100952.41;;;10.34;100.00
37610;BME280;23457;51.966;8.230;2023-04-07T08:57:42;100955.69;;;10.25;100.00
37610;BME280;23457;51.966;8.230;2023-04-07T09:00:09;100956.78;;;10.36;100.00
37610;BME280;23457;51.966;8.230;2023-04-07T09:02:41;100952.19;;;10.23;100.00
37610;BME280;23457;51.966;8.230;2023-04-07T09:05:13;100949.91;;;10.38;100.00
37610;BME280;23457;51.966;8.230;2023-04-07T09:07:40;100965.44;;;10.35;100.00
37610;BME280;23457;51.966;8.230;2023-04-07T09:10:09;100967.59;;;10.17;100.00
37610;BME280;23457;51.966;8.230;2023-04-07T09:12:36;100967.41;;;10.08;100.00
37610;BME280;23457;51.966;8.230;2023-04-07T09:15:07;100975.03;;;10.02;100.00
37610;BME280;23457;51.966;8.230;2023-04-07T09:17:34;100969.44;;;10.21;100.00
37610;BME280;23457;51.966;8.230;2023-04-07T09:20:01;100975.88;;;10.01;100.00
37610;BME280;23457;51.966;8.230;2023-04-07T09:22:35;100978.56;;;10.04;100.00
37610;BME280;23457;51.966;8.230;2023-04-07T09:25:28;100978.81;;;10.16;100.00
37610;BME280;23457;51.966;8.230;2023-04-07T09:27:57;100978.50;;;10.02;100.00
37610;BME280;23457;51.966;8.230;2023-04-07T09:30:25;100983.66;;;10.01;100.00
37610;BME280;23457;51.966;8.230;2023-04-07T09:32:53;100983.00;;;10.10;100.00
37610;BME280;23457;51.966;8.230;2023-04-07T09:35:20;100981.69;;;10.27;100.00
37610;BME280;23457;51.966;8.230;2023-04-07T09:38:05;100978.50;;;10.38;100.00
37610;BME280;23457;51.966;8.230;2023-04-07T09:40:34;100977.75;;;10.46;99.22
37610;BME280;23457;51.966;8.230;2023-04-07T09:43:02;100971.81;;;10.53;100.00
37610;BME280;23457;51.966;8.230;2023-04-07T09:45:30;100978.19;;;10.67;98.37
37610;BME280;23457;51.966;8.230;2023-04-07T09:48:19;100977.56;;;10.36;98.28
37610;BME280;23457;51.966;8.230;2023-04-07T09:50:46;100986.53;;;10.52;97.00
37610;BME280;23457;51.966;8.230;2023-04-07T09:53:17;100985.06;;;10.65;99.32
37610;BME280;23457;51.966;8.230;2023-04-07T09:55:48;100987.63;;;10.62;98.05
37610;BME280;23457;51.966;8.230;2023-04-07T09:58:16;100989.06;;;10.48;96.52
37610;BME280;23457;51.966;8.230;2023-04-07T10:00:44;100986.09;;;10.31;96.13
37610;BME280;23457;51.966;8.230;2023-04-07T10:03:11;100980.28;;;10.43;97.45
37610;BME280;23457;51.966;8.230;2023-04-07T10:05:39;100989.56;;;10.31;97.52
37610;BME280;23457;51.966;8.230;2023-04-07T10:08:06;100985.19;;;10.71;98.57
37610;BME280;23457;51.966;8.230;2023-04-07T10:10:34;100987.69;;;10.66;96.54
37610;BME280;23457;51.966;8.230;2023-04-07T10:13:03;100985.50;;;10.86;95.71
37610;BME280;23457;51.966;8.230;2023-04-07T10:15:31;100988.97;;;10.87;94.11
37610;BME280;23457;51.966;8.230;2023-04-07T10:17:58;100996.91;;;10.94;93.18
37610;BME280;23457;51.966;8.230;2023-04-07T10:20:25;100997.34;;;10.72;93.49
37610;BME280;23457;51.966;8.230;2023-04-07T10:22:54;100999.78;;;10.64;92.16
37610;BME280;23457;51.966;8.230;2023-04-07T10:25:27;101000.56;;;10.59;93.34
37610;BME280;23457;51.966;8.230;2023-04-07T10:27:58;101009.09;;;10.97;93.06
37610;BME280;23457;51.966;8.230;2023-04-07T10:30:29;101007.81;;;10.75;92.75
37610;BME280;23457;51.966;8.230;2023-04-07T10:32:57;101011.13;;;10.68;94.40
37610;BME280;23457;51.966;8.230;2023-04-07T10:35:24;101013.13;;;10.81;91.95
37610;BME280;23457;51.966;8.230;2023-04-07T10:40:35;101014.66;;;10.71;92.74
37610;BME280;23457;51.966;8.230;2023-04-07T10:43:02;101016.97;;;11.00;92.04
37610;BME280;23457;51.966;8.230;2023-04-07T10:48:12;101026.91;;;10.77;90.46
37610;BME280;23457;51.966;8.230;2023-04-07T10:50:39;101021.66;;;10.74;89.56
37610;BME280;23457;51.966;8.230;2023-04-07T10:53:14;101030.44;;;10.81;89.82
37610;BME280;23457;51.966;8.230;2023-04-07T10:55:45;101025.34;;;10.85;89.92
37610;BME280;23457;51.966;8.230;2023-04-07T11:00:39;101026.13;;;11.26;90.27
37610;BME280;23457;51.966;8.230;2023-04-07T11:03:12;101020.06;;;11.26;87.98
37610;BME280;23457;51.966;8.230;2023-04-07T11:05:40;101028.75;;;11.28;88.96
37610;BME280;23457;51.966;8.230;2023-04-07T11:08:07;101024.63;;;11.39;87.39
37610;BME280;23457;51.966;8.230;2023-04-07T11:10:34;101029.84;;;11.39;87.74
37610;BME280;23457;51.966;8.230;2023-04-07T11:13:03;101035.38;;;11.10;90.81
37610;BME280;23457;51.966;8.230;2023-04-07T11:15:31;101036.94;;;11.49;88.79
37610;BME280;23457;51.966;8.230;2023-04-07T11:23:12;101034.88;;;11.31;88.65
37610;BME280;23457;51.966;8.230;2023-04-07T11:25:41;101041.97;;;11.40;88.19
37610;BME280;23457;51.966;8.230;2023-04-07T11:28:09;101040.19;;;11.36;88.21
37610;BME280;23457;51.966;8.230;2023-04-07T11:30:38;101043.78;;;11.44;87.83
37610;BME280;23457;51.966;8.230;2023-04-07T11:33:06;101045.81;;;11.60;87.67
37610;BME280;23457;51.966;8.230;2023-04-07T11:35:34;101041.63;;;11.70;86.51
37610;BME280;23457;51.966;8.230;2023-04-07T11:38:02;101051.31;;;11.75;86.90
37610;BME280;23457;51.966;8.230;2023-04-07T11:40:34;101047.78;;;11.73;82.01
37610;BME280;23457;51.966;8.230;2023-04-07T11:43:23;101040.28;;;11.90;83.82
37610;BME280;23457;51.966;8.230;2023-04-07T11:46:16;101043.06;;;12.04;83.69
37610;BME280;23457;51.966;8.230;2023-04-07T11:48:44;101045.44;;;11.89;84.23
37610;BME280;23457;51.966;8.230;2023-04-07T11:51:20;101042.88;;;11.92;82.17
37610;BME280;23457;51.966;8.230;2023-04-07T11:53:55;101052.94;;;11.72;84.09
37610;BME280;23457;51.966;8.230;2023-04-07T11:56:22;101048.28;;;12.04;84.25
37610;BME280;23457;51.966;8.230;2023-04-07T11:58:54;101048.50;;;12.19;82.92
37610;BME280;23457;51.966;8.230;2023-04-07T12:01:21;101053.88;;;12.31;80.95
37610;BME280;23457;51.966;8.230;2023-04-07T12:04:12;101064.47;;;12.42;79.55
37610;BME280;23457;51.966;8.230;2023-04-07T12:06:40;101060.44;;;12.05;81.02
37610;BME280;23457;51.966;8.230;2023-04-07T12:09:23;101058.88;;;12.16;79.20
37610;BME280;23457;51.966;8.230;2023-04-07T12:11:51;101068.88;;;12.46;81.37
37610;BME280;23457;51.966;8.230;2023-04-07T12:14:18;101068.00;;;12.45;79.02
37610;BME280;23457;51.966;8.230;2023-04-07T12:16:45;101068.00;;;12.45;78.42
37610;BME280;23457;51.966;8.230;2023-04-07T12:19:12;101055.16;;;12.59;79.15
37610;BME280;23457;51.966;8.230;2023-04-07T12:21:38;101062.31;;;12.75;79.45
37610;BME280;23457;51.966;8.230;2023-04-07T12:24:05;101059.84;;;12.86;78.30
37610;BME280;23457;51.966;8.230;2023-04-07T12:26:32;101066.03;;;12.94;78.62
37610;BME280;23457;51.966;8.230;2023-04-07T12:28:58;101065.38;;;13.13;76.58
37610;BME280;23457;51.966;8.230;2023-04-07T12:31:31;101067.44;;;13.39;78.41
37610;BME280;23457;51.966;8.230;2023-04-07T12:33:58;101064.88;;;13.46;74.86
37610;BME280;23457;51.966;8.230;2023-04-07T12:36:25;101067.50;;;13.46;72.34
37610;BME280;23457;51.966;8.230;2023-04-07T12:38:55;101071.84;;;13.46;72.30
37610;BME280;23457;51.966;8.230;2023-04-07T12:41:23;101075.56;;;13.71;72.07
37610;BME280;23457;51.966;8.230;2023-04-07T12:43:50;101078.66;;;13.33;68.61
37610;BME280;23457;51.966;8.230;2023-04-07T12:46:18;101080.00;;;12.99;70.11
37610;BME280;23457;51.966;8.230;2023-04-07T12:48:45;101072.97;;;12.93;71.31
37610;BME280;23457;51.966;8.230;2023-04-07T12:51:13;101075.94;;;13.22;74.63
37610;BME280;23457;51.966;8.230;2023-04-07T12:53:39;101083.03;;;13.34;71.92
37610;BME280;23457;51.966;8.230;2023-04-07T12:56:06;101081.66;;;12.92;73.21
37610;BME280;23457;51.966;8.230;2023-04-07T12:58:33;101075.50;;;12.86;73.38
37610;BME280;23457;51.966;8.230;2023-04-07T13:01:00;101078.16;;;12.90;72.72
37610;BME280;23457;51.966;8.230;2023-04-07T13:03:28;101078.22;;;12.95;74.03
37610;BME280;23457;51.966;8.230;2023-04-07T13:05:55;101079.16;;;13.00;74.56
37610;BME280;23457;51.966;8.230;2023-04-07T13:08:21;101080.81;;;12.95;73.45
37610;BME280;23457;51.966;8.230;2023-04-07T13:10:48;101082.84;;;13.17;74.09
37610;BME280;23457;51.966;8.230;2023-04-07T13:13:15;101080.94;;;13.04;71.39
37610;BME280;23457;51.966;8.230;2023-04-07T13:15:41;101082.19;;;12.66;72.92